sensor_id;sensor_type;location;lat;lon;timestamp;temperature;humidity
33811;DHT22;20119;48.334;16.206;2023-11-21T07:04:41;4.40;99.90
33811;DHT22;20119;48.334;16.206;2023-11-21T07:07:22;4.90;99.90
33811;DHT22;20119;48.334;16.206;2023-11-21T07:12:37;5.10;99.90
33811;DHT22;20119;48.334;16.206;2023-11-21T07:25:35;5.50;99.90
33811;DHT22;20119;48.334;16.206;2023-11-21T07:30:48;5.80;99.90
33811;DHT22;20119;48.334;16.206;2023-11-21T07:36:07;6.00;99.90
33811;DHT22;20119;48.334;16.206;2023-11-21T07:44:03;6.00;99.90
33811;DHT22;20119;48.334;16.206;2023-11-21T07:51:52;7.40;99.90
33811;DHT22;20119;48.334;16.206;2023-11-21T08:05:04;11.30;99.90
33811;DHT22;20119;48.334;16.206;2023-11-21T08:07:51;11.80;99.90
33811;DHT22;20119;48.334;16.206;2023-11-21T08:13:07;12.40;99.90
33811;DHT22;20119;48.334;16.206;2023-11-21T08:15:43;12.80;99.90
33811;DHT22;20119;48.334;16.206;2023-11-21T08:18:28;13.10;99.90
33811;DHT22;20119;48.334;16.206;2023-11-21T08:28:52;13.80;99.90
33811;DHT22;20119;48.334;16.206;2023-11-21T08:31:27;14.30;99.90
33811;DHT22;20119;48.334;16.206;2023-11-21T08:39:10;13.00;99.90
33811;DHT22;20119;48.334;16.206;2023-11-21T08:47:02;11.50;99.90
33811;DHT22;20119;48.334;16.206;2023-11-21T09:02:33;11.00;99.90
33811;DHT22;20119;48.334;16.206;2023-11-21T09:05:22;11.10;99.90
33811;DHT22;20119;48.334;16.206;2023-11-21T09:15:53;10.40;99.90
33811;DHT22;20119;48.334;16.206;2023-11-21T09:18:40;10.20;99.90
33811;DHT22;20119;48.334;16.206;2023-11-21T09:21:18;10.40;99.90
33811;DHT22;20119;48.334;16.206;2023-11-21T09:24:01;10.30;99.90
33811;DHT22;20119;48.334;16.206;2023-11-21T09:26:42;10.30;99.90
33811;DHT22;20119;48.334;16.206;2023-11-21T09:29:16;10.50;99.90
33811;DHT22;20119;48.334;16.206;2023-11-21T09:37:13;10.50;99.90
33811;DHT22;20119;48.334;16.206;2023-11-21T09:39:50;10.50;99.90
33811;DHT22;20119;48.334;16.206;2023-11-21T09:42:30;10.70;99.90
33811;DHT22;20119;48.334;16.206;2023-11-21T09:45:20;10.70;99.90
33811;DHT22;20119;48.334;16.206;2023-11-21T09:47:59;10.80;99.90
33811;DHT22;20119;48.334;16.206;2023-11-21T09:53:18;10.20;99.90
33811;DHT22;20119;48.334;16.206;2023-11-21T09:55:57;10.10;99.90
33811;DHT22;20119;48.334;16.206;2023-11-21T10:01:08;10.30;99.90
33811;DHT22;20119;48.334;16.206;2023-11-21T10:03:41;10.20;99.90
33811;DHT22;20119;48.334;16.206;2023-11-21T10:09:04;10.10;99.90
33811;DHT22;20119;48.334;16.206;2023-11-21T10:19:38;10.20;99.90
33811;DHT22;20119;48.334;16.206;2023-11-21T10:38:07;11.10;99.90
33811;DHT22;20119;48.334;16.206;2023-11-21T10:40:51;11.20;99.90
33811;DHT22;20119;48.334;16.206;2023-11-21T10:43:36;11.40;99.90
33811;DHT22;20119;48.334;16.206;2023-11-21T10:46:11;11.40;99.90
33811;DHT22;20119;48.334;16.206;2023-11-21T10:48:59;11.20;99.90
33811;DHT22;20119;48.334;16.206;2023-11-21T10:51:38;11.30;99.90
33811;DHT22;20119;48.334;16.206;2023-11-21T10:54:49;11.50;99.90
33811;DHT22;20119;48.334;16.206;2023-11-21T11:00:08;12.10;99.90
33811;DHT22;20119;48.334;16.206;2023-11-21T11:10:44;12.30;99.90
33811;DHT22;20119;48.334;16.206;2023-11-21T11:13:31;12.20;99.90
33811;DHT22;20119;48.334;16.206;2023-11-21T11:16:09;12.00;99.90
33811;DHT22;20119;48.334;16.206;2023-11-21T11:29:28;12.10;99.90
33811;DHT22;20119;48.334;16.206;2023-11-21T11:42:36;12.40;99.90
33811;DHT22;20119;48.334;16.206;2023-11-21T12:16:16;11.60;99.90
33811;DHT22;20119;48.334;16.206;2023-11-21T12:18:47;11.60;99.90
33811;DHT22;20119;48.334;16.206;2023-11-21T12:21:23;11.70;99.90
33811;DHT22;20119;48.334;16.206;2023-11-21T12:24:01;11.80;99.90
33811;DHT22;20119;48.334;16.206;2023-11-21T12:29:14;11.60;99.90
33811;DHT22;20119;48.334;16.206;2023-11-21T12:49:59;11.20;99.90
33811;DHT22;20119;48.334;16.206;2023-11-21T12:52:45;11.40;99.90
33811;DHT22;20119;48.334;16.206;2023-11-21T13:59:10;9.60;99.90
33811;DHT22;20119;48.334;16.206;2023-11-21T14:02:06;9.40;99.90
33811;DHT22;20119;48.334;16.206;2023-11-21T14:10:03;9.50;99.90
33811;DHT22;20119;48.334;16.206;2023-11-21T14:12:38;9.40;99.90
33811;DHT22;20119;48.334;16.206;2023-11-21T14:15:26;9.40;99.90
33811;DHT22;20119;48.334;16.206;2023-11-21T14:18:01;9.40;99.90
33811;DHT22;20119;48.334;16.206;2023-11-21T14:20:43;9.40;99.90
33811;DHT22;20119;48.334;16.206;2023-11-21T14:23:24;9.30;99.90
33811;DHT22;20119;48.334;16.206;2023-11-21T14:25:59;9.30;99.90
33811;DHT22;20119;48.334;16.206;2023-11-21T14:28:34;9.30;99.90
33811;DHT22;20119;48.334;16.206;2023-11-21T14:31:07;9.20;99.90
33811;DHT22;20119;48.334;16.206;2023-11-21T14:33:40;9.10;99.90
33811;DHT22;20119;48.334;16.206;2023-11-21T14:38:40;9.00;99.90
33811;DHT22;20119;48.334;16.206;2023-11-21T14:41:20;8.90;99.90
33811;DHT22;20119;48.334;16.206;2023-11-21T14:44:00;8.80;99.90
33811;DHT22;20119;48.334;16.206;2023-11-21T14:46:44;8.90;99.90
33811;DHT22;20119;48.334;16.206;2023-11-21T14:49:18;8.80;99.90
33811;DHT22;20119;48.334;16.206;2023-11-21T14:51:56;8.80;99.90
33811;DHT22;20119;48.334;16.206;2023-11-21T14:54:36;8.80;99.90
33811;DHT22;20119;48.334;16.206;2023-11-21T14:57:18;8.80;99.90
33811;DHT22;20119;48.334;16.206;2023-11-21T14:59:52;8.70;99.90
33811;DHT22;20119;48.334;16.206;2023-11-21T15:02:28;8.80;99.90
33811;DHT22;20119;48.334;16.206;2023-11-21T15:05:13;8.70;99.90
33811;DHT22;20119;48.334;16.206;2023-11-21T15:07:50;8.70;99.90
33811;DHT22;20119;48.334;16.206;2023-11-21T15:10:24;8.70;99.90
33811;DHT22;20119;48.334;16.206;2023-11-21T15:13:15;8.60;99.90
33811;DHT22;20119;48.334;16.206;2023-11-21T15:15:44;8.60;99.90
33811;DHT22;20119;48.334;16.206;2023-11-21T15:18:27;8.60;99.90
33811;DHT22;20119;48.334;16.206;2023-11-21T15:21:09;8.60;99.90
33811;DHT22;20119;48.334;16.206;2023-11-21T15:23:41;8.60;99.90
33811;DHT22;20119;48.334;16.206;2023-11-21T15:26:19;8.60;99.90
33811;DHT22;20119;48.334;16.206;2023-11-21T15:28:57;8.60;99.90
33811;DHT22;20119;48.334;16.206;2023-11-21T15:31:33;8.60;99.90
33811;DHT22;20119;48.334;16.206;2023-11-21T15:34:30;8.50;99.90
33811;DHT22;20119;48.334;16.206;2023-11-21T15:37:02;8.50;99.90
33811;DHT22;20119;48.334;16.206;2023-11-21T15:39:39;8.40;99.90
33811;DHT22;20119;48.334;16.206;2023-11-21T15:42:14;8.40;99.90
33811;DHT22;20119;48.334;16.206;2023-11-21T15:44:55;8.40;99.90
33811;DHT22;20119;48.334;16.206;2023-11-21T15:47:33;8.40;99.90
33811;DHT22;20119;48.334;16.206;2023-11-21T15:50:20;8.40;99.90
33811;DHT22;20119;48.334;16.206;2023-11-21T15:52:52;8.20;99.90
33811;DHT22;20119;48.334;16.206;2023-11-21T15:55:26;8.10;99.90
33811;DHT22;20119;48.334;16.206;2023-11-21T15:57:58;8.20;99.90
33811;DHT22;20119;48.334;16.206;2023-11-21T16:00:36;8.10;99.90
33811;DHT22;20119;48.334;16.206;2023-11-21T16:03:10;8.10;99.90
33811;DHT22;20119;48.334;16.206;2023-11-21T16:05:47;8.00;99.90
33811;DHT22;20119;48.334;16.206;2023-11-21T16:08:24;8.00;99.90
33811;DHT22;20119;48.334;16.206;2023-11-21T16:11:01;7.90;99.90
33811;DHT22;20119;48.334;16.206;2023-11-21T16:13:35;7.90;99.90
33811;DHT22;20119;48.334;16.206;2023-11-21T16:16:06;7.80;99.90
33811;DHT22;20119;48.334;16.206;2023-11-21T16:18:39;7.80;99.90
33811;DHT22;20119;48.334;16.206;2023-11-21T16:21:24;7.70;99.90
33811;DHT22;20119;48.334;16.206;2023-11-21T16:23:59;7.70;99.90
33811;DHT22;20119;48.334;16.206;2023-11-21T16:31:38;7.60;99.90
33811;DHT22;20119;48.334;16.206;2023-11-21T16:34:19;7.60;99.90
33811;DHT22;20119;48.334;16.206;2023-11-21T16:37:06;7.50;99.90
33811;DHT22;20119;48.334;16.206;2023-11-21T16:39:42;7.50;99.90
33811;DHT22;20119;48.334;16.206;2023-11-21T16:42:15;7.50;99.90
33811;DHT22;20119;48.334;16.206;2023-11-21T16:44:52;7.50;99.90
33811;DHT22;20119;48.334;16.206;2023-11-21T16:47:28;7.50;99.90
33811;DHT22;20119;48.334;16.206;2023-11-21T16:50:04;7.50;99.90
33811;DHT22;20119;48.334;16.206;2023-11-21T16:52:41;7.50;99.90
33811;DHT22;20119;48.334;16.206;2023-11-21T16:55:17;7.50;99.90
33811;DHT22;20119;48.334;16.206;2023-11-21T16:57:57;7.60;99.90
33811;DHT22;20119;48.334;16.206;2023-11-21T17:00:39;7.50;99.90
33811;DHT22;20119;48.334;16.206;2023-11-21T17:03:10;7.50;99.90
33811;DHT22;20119;48.334;16.206;2023-11-21T17:05:56;7.50;99.90
33811;DHT22;20119;48.334;16.206;2023-11-21T17:08:45;7.60;99.90
33811;DHT22;20119;48.334;16.206;2023-11-21T17:11:34;7.60;99.90
33811;DHT22;20119;48.334;16.206;2023-11-21T17:14:35;7.70;99.90
33811;DHT22;20119;48.334;16.206;2023-11-21T17:17:26;7.70;99.90
33811;DHT22;20119;48.334;16.206;2023-11-21T17:22:35;7.70;99.90
33811;DHT22;20119;48.334;16.206;2023-11-21T17:25:16;7.70;99.90
33811;DHT22;20119;48.334;16.206;2023-11-21T17:27:57;7.70;99.90
33811;DHT22;20119;48.334;16.206;2023-11-21T17:30:42;7.80;99.90
33811;DHT22;20119;48.334;16.206;2023-11-21T17:33:23;7.80;99.90
33811;DHT22;20119;48.334;16.206;2023-11-21T17:38:36;7.80;99.90
33811;DHT22;20119;48.334;16.206;2023-11-21T17:41:26;7.90;99.90
33811;DHT22;20119;48.334;16.206;2023-11-21T17:46:52;7.80;99.90
33811;DHT22;20119;48.334;16.206;2023-11-21T17:49:41;7.80;99.90
33811;DHT22;20119;48.334;16.206;2023-11-21T17:52:29;7.90;99.90
33811;DHT22;20119;48.334;16.206;2023-11-21T17:55:14;7.90;99.90
33811;DHT22;20119;48.334;16.206;2023-11-21T17:57:54;7.90;99.90
33811;DHT22;20119;48.334;16.206;2023-11-21T18:00:40;7.80;99.90
33811;DHT22;20119;48.334;16.206;2023-11-21T18:11:32;7.80;99.90
